< < Back
Terminal Aerodrome Forecast


Current Version              Previous Versions:   1  2  3  4  5  6  7  8  9  

Terminal Aerodrome Forecast

000
FTUS42 KJAX 191530 AAA
TAFJAX
TAF AMD
KJAX 191530Z 1916/2012 18008KT P6SM FEW030 SCT150 BKN250
     FM192000 21010G15KT P6SM VCTS SCT030CB BKN050 OVC200
      TEMPO 1920/1924 VRB15G25KT 3SM +TSRA BKN025CB OVC050
     FM200000 18005KT 5SM RA BR OVC015
     FM200600 17006KT P6SM OVC015
     FM200800 21006KT P6SM OVC007
     FM201000 22006KT 4SM BR OVC007=

Latest METAR

108
SAUS80 KWBC 200000
MTRJAX
METAR KJAX 192356Z 22005KT 10SM FEW065 SCT110 BKN140 BKN250 22/19 A2983
RMK AO2 SLP101 T02170189 10300 20211 58002 $


USA.gov is the U.S. government's official web portal to all federal, state and local government web resources and services.